Time;durP1;ratioP1;P1;durP2;ratioP2;P2;SDS_P1;SDS_P2;PMS_P1;PMS_P2;Temp;Humidity;BMP_temperature;BMP_pressure;BME280_temperature;BME280_humidity;BME280_pressure;Samples;Min_cycle;Max_cycle;Signal;HPM_P1;HPM_P2
2022/09/26 00:01:31;;;;;;;6.60;3.63;;;;;;;9.52;100.00;98315.72;4953513;28;20238;-59
2022/09/26 00:04:01;;;;;;;7.20;3.57;;;;;;;9.54;100.00;98321.56;4959197;28;20635;-60
2022/09/26 00:06:28;;;;;;;8.30;3.33;;;;;;;9.60;100.00;98322.75;4951557;28;20236;-59
2022/09/26 00:08:55;;;;;;;4.73;3.23;;;;;;;9.65;100.00;98319.69;4960335;28;20297;-59
2022/09/26 00:11:24;;;;;;;6.17;3.00;;;;;;;9.62;100.00;98309.56;4956281;28;20234;-59
2022/09/26 00:13:53;;;;;;;4.93;3.37;;;;;;;9.60;100.00;98310.53;4959709;28;20243;-59
2022/09/26 00:16:20;;;;;;;8.77;3.53;;;;;;;9.61;100.00;98303.53;4955245;28;20944;-59
2022/09/26 00:18:50;;;;;;;6.03;2.90;;;;;;;9.60;100.00;98302.72;4960321;28;20246;-59
2022/09/26 00:21:17;;;;;;;3.30;3.00;;;;;;;9.59;100.00;98301.06;4958596;28;20241;-59
2022/09/26 00:23:44;;;;;;;5.10;3.17;;;;;;;9.60;100.00;98302.72;4958664;28;20699;-59
2022/09/26 00:26:12;;;;;;;5.33;3.77;;;;;;;9.62;100.00;98296.53;4960269;28;20229;-58
2022/09/26 00:28:39;;;;;;;5.63;3.10;;;;;;;9.62;100.00;98296.53;4964426;28;20234;-59
2022/09/26 00:31:08;;;;;;;6.17;3.00;;;;;;;9.65;100.00;98293.63;4961404;28;20233;-59
2022/09/26 00:33:36;;;;;;;6.87;3.30;;;;;;;9.58;100.00;98281.19;4940481;28;20247;-59
2022/09/26 00:36:06;;;;;;;3.70;3.30;;;;;;;9.58;100.00;98277.78;4949668;28;20698;-59
2022/09/26 00:38:33;;;;;;;4.03;3.03;;;;;;;9.54;100.00;98279.88;4936684;28;20234;-59
2022/09/26 00:41:00;;;;;;;11.13;3.43;;;;;;;9.49;100.00;98282.13;4943154;28;20820;-59
2022/09/26 00:43:31;;;;;;;7.00;3.70;;;;;;;9.39;100.00;98277.00;4935341;28;20856;-59
2022/09/26 00:46:00;;;;;;;4.03;3.43;;;;;;;9.34;100.00;98278.44;4958765;28;20238;-59
2022/09/26 00:48:29;;;;;;;5.80;3.10;;;;;;;9.24;100.00;98281.94;4939352;28;20250;-59
2022/09/26 00:50:56;;;;;;;7.83;3.37;;;;;;;9.16;100.00;98276.69;4961056;28;20317;-59
2022/09/26 00:53:28;;;;;;;7.03;3.63;;;;;;;9.09;100.00;98278.25;4939437;28;20314;-59
2022/09/26 00:55:59;;;;;;;3.70;3.10;;;;;;;9.06;100.00;98273.34;4941763;28;20258;-58
2022/09/26 00:58:30;;;;;;;9.00;3.47;;;;;;;9.03;100.00;98274.44;4936961;28;20306;-59
2022/09/26 01:00:58;;;;;;;5.27;3.60;;;;;;;9.00;100.00;98262.53;4941820;28;20237;-59
2022/09/26 01:03:25;;;;;;;6.37;3.60;;;;;;;8.93;100.00;98264.09;4953038;28;20238;-59
2022/09/26 01:05:52;;;;;;;7.07;3.40;;;;;;;8.92;100.00;98261.66;4959770;28;20298;-58
2022/09/26 01:08:25;;;;;;;5.60;3.50;;;;;;;8.93;100.00;98266.72;4941413;28;20237;-58
2022/09/26 01:10:53;;;;;;;6.03;3.70;;;;;;;8.95;100.00;98259.56;4938916;28;20297;-59
2022/09/26 01:13:20;;;;;;;4.80;3.57;;;;;;;8.95;100.00;98259.56;4936338;28;20260;-59
2022/09/26 01:15:47;;;;;;;9.07;3.97;;;;;;;8.94;100.00;98260.53;4957752;28;20904;-59
2022/09/26 01:18:13;;;;;;;8.03;3.23;;;;;;;8.94;100.00;98259.75;4940398;28;20631;-58
2022/09/26 01:20:50;;;;;;;6.20;3.13;;;;;;;8.93;100.00;98256.31;4961047;28;20620;-59
2022/09/26 01:24:01;;;;;;;6.33;3.27;;;;;;;8.96;100.00;98258.59;4952212;28;20337;-59
2022/09/26 01:26:57;;;;;;;6.63;4.20;;;;;;;8.91;100.00;98252.22;4952959;28;21474;-58
2022/09/26 01:30:00;;;;;;;8.77;3.30;;;;;;;8.93;100.00;98256.31;4936923;28;20298;-58
2022/09/26 01:32:49;;;;;;;5.23;3.37;;;;;;;8.90;100.00;98256.59;4959718;28;20229;-59
2022/09/26 01:35:26;;;;;;;7.40;3.03;;;;;;;8.89;100.00;98251.56;4956954;28;20715;-59
2022/09/26 01:38:02;;;;;;;5.97;3.17;;;;;;;8.92;100.00;98257.28;4935549;28;20298;-58
2022/09/26 01:40:33;;;;;;;9.83;3.43;;;;;;;8.88;100.00;98258.53;4956538;28;20234;-59
2022/09/26 01:43:08;;;;;;;6.97;3.47;;;;;;;8.92;100.00;98257.28;4945630;28;20226;-59
2022/09/26 01:45:43;;;;;;;5.90;3.37;;;;;;;8.92;100.00;98249.47;4939133;28;20287;-59
2022/09/26 01:48:17;;;;;;;11.83;4.50;;;;;;;8.93;100.00;98251.09;4936442;28;20225;-59
2022/09/26 01:50:50;;;;;;;6.33;3.57;;;;;;;8.97;100.00;98249.03;4953833;28;20233;-59
2022/09/26 01:53:22;;;;;;;8.07;3.50;;;;;;;9.05;100.00;98248.25;4958022;28;20244;-59
2022/09/26 01:55:56;;;;;;;5.10;3.37;;;;;;;9.07;100.00;98243.72;4936457;28;20309;-59
2022/09/26 01:58:28;;;;;;;4.93;3.80;;;;;;;9.12;100.00;98241.50;4946495;28;20265;-59
2022/09/26 02:00:59;;;;;;;9.43;3.53;;;;;;;9.13;100.00;98233.50;4960165;28;20229;-60
2022/09/26 02:03:35;;;;;;;4.43;3.40;;;;;;;9.14;100.00;98234.34;4961191;28;20233;-59
2022/09/26 02:06:06;;;;;;;4.23;2.97;;;;;;;9.15;100.00;98236.78;4944613;28;20602;-59
2022/09/26 02:08:37;;;;;;;7.53;3.47;;;;;;;9.10;100.00;98223.41;4940377;28;20226;-59
2022/09/26 02:11:09;;;;;;;5.73;3.60;;;;;;;9.06;100.00;98234.28;4964110;28;20247;-59
2022/09/26 02:13:42;;;;;;;4.33;3.30;;;;;;;9.00;100.00;98228.69;4941966;28;20243;-59
2022/09/26 02:16:16;;;;;;;7.50;3.10;;;;;;;8.99;100.00;98234.06;4958239;28;20229;-59
2022/09/26 02:18:48;;;;;;;8.00;3.03;;;;;;;8.91;100.00;98221.00;4946551;28;20713;-59
2022/09/26 02:21:17;;;;;;;7.90;3.10;;;;;;;8.92;100.00;98228.63;4937421;28;20292;-59
2022/09/26 02:23:44;;;;;;;5.93;3.63;;;;;;;8.89;100.00;98220.31;4942292;28;20225;-59
2022/09/26 02:26:11;;;;;;;6.30;3.37;;;;;;;8.85;100.00;98217.19;4946506;28;20297;-59
2022/09/26 02:28:37;;;;;;;7.37;3.30;;;;;;;8.86;100.00;98209.25;4937707;28;20325;-59
2022/09/26 02:31:07;;;;;;;7.77;3.70;;;;;;;8.86;100.00;98201.44;4948133;28;20230;-60
2022/09/26 02:33:34;;;;;;;4.80;3.00;;;;;;;8.83;100.00;98203.50;4943768;28;20682;-59
2022/09/26 02:36:05;;;;;;;7.43;3.00;;;;;;;8.88;100.00;98193.47;4945664;28;20256;-59
2022/09/26 02:38:32;;;;;;;4.10;3.20;;;;;;;8.81;100.00;98192.44;4940161;28;20236;-59
2022/09/26 02:41:18;;;;;;;7.27;3.17;;;;;;;8.79;100.00;98196.97;4935079;28;20789;-60
2022/09/26 02:44:07;;;;;;;7.63;3.57;;;;;;;8.78;100.00;98193.56;4967761;28;20294;-58
2022/09/26 02:46:54;;;;;;;5.70;3.40;;;;;;;8.74;100.00;98180.97;4936143;28;20605;-59
2022/09/26 02:49:46;;;;;;;5.07;3.27;;;;;;;8.74;100.00;98183.59;4938900;28;20241;-60
2022/09/26 02:52:28;;;;;;;6.23;3.10;;;;;;;8.71;100.00;98176.91;4940119;28;20221;-59
2022/09/26 02:55:08;;;;;;;7.43;3.50;;;;;;;8.70;100.00;98175.28;4951549;28;20248;-59
2022/09/26 02:57:43;;;;;;;7.13;3.10;;;;;;;8.69;100.00;98168.44;4941960;28;20326;-59
2022/09/26 03:00:16;;;;;;;4.73;3.13;;;;;;;8.69;100.00;98165.84;4938977;28;20249;-59
2022/09/26 03:05:57;;;;;;;5.70;3.07;;;;;;;8.69;100.00;98153.63;4892110;29;20248;-57
2022/09/26 03:08:28;;;;;;;3.77;3.10;;;;;;;8.65;100.00;98147.09;4900317;29;20721;-58
2022/09/26 03:11:01;;;;;;;9.17;3.20;;;;;;;8.67;100.00;98149.56;4881592;29;20581;-58
2022/09/26 03:13:33;;;;;;;10.33;3.77;;;;;;;8.65;100.00;98149.69;4887352;29;20698;-59
2022/09/26 03:16:00;;;;;;;4.67;3.20;;;;;;;8.63;100.00;98146.41;4918781;29;20767;-59
2022/09/26 03:18:32;;;;;;;6.37;3.20;;;;;;;8.64;100.00;98152.44;4882470;29;20240;-58
2022/09/26 03:20:59;;;;;;;5.53;3.00;;;;;;;8.63;100.00;98148.22;4901217;29;20224;-57
2022/09/26 03:23:28;;;;;;;10.87;3.43;;;;;;;8.55;100.00;98147.19;4918988;29;20766;-57
2022/09/26 03:26:01;;;;;;;6.23;3.20;;;;;;;8.51;100.00;98153.66;4918340;29;20799;-58
2022/09/26 03:28:29;;;;;;;5.00;3.10;;;;;;;8.51;100.00;98156.25;4895016;29;22643;-58
2022/09/26 03:30:57;;;;;;;8.40;2.93;;;;;;;8.48;100.00;98151.31;4904760;29;20230;-59
2022/09/26 03:33:27;;;;;;;5.23;3.40;;;;;;;8.46;100.00;98142.84;4917443;29;20353;-58
2022/09/26 03:35:55;;;;;;;5.87;3.43;;;;;;;8.47;100.00;98133.28;4921754;29;20232;-58
2022/09/26 03:38:22;;;;;;;6.03;3.40;;;;;;;8.45;100.00;98136.00;4893615;29;20262;-58
2022/09/26 03:41:03;;;;;;;10.17;7.73;;;;;;;8.47;100.00;98122.88;4903009;29;20224;-58
2022/09/26 03:43:56;;;;;;;13.70;3.40;;;;;;;8.48;100.00;98117.50;4890741;29;20251;-59
2022/09/26 03:46:25;;;;;;;7.77;3.37;;;;;;;8.40;100.00;98112.22;4905620;29;20318;-58
2022/09/26 03:48:51;;;;;;;5.87;3.70;;;;;;;8.32;100.00;98107.78;4915410;29;20430;-58
2022/09/26 03:51:19;;;;;;;7.90;3.00;;;;;;;8.24;100.00;98103.31;4897799;29;20749;-58
2022/09/26 03:53:46;;;;;;;7.63;3.30;;;;;;;8.22;100.00;98104.44;4917882;29;20807;-58
2022/09/26 03:56:19;;;;;;;7.53;3.17;;;;;;;8.20;100.00;98108.97;4908210;29;20227;-58
2022/09/26 03:58:48;;;;;;;8.93;3.40;;;;;;;8.11;100.00;98103.69;4924871;29;20387;-58
2022/09/26 04:01:17;;;;;;;7.07;3.40;;;;;;;8.08;100.00;98100.56;4920752;29;20710;-58
2022/09/26 04:03:46;;;;;;;8.90;3.20;;;;;;;7.96;100.00;98092.16;4902168;29;21048;-58
2022/09/26 04:06:14;;;;;;;4.83;2.87;;;;;;;7.88;100.00;98087.72;4916711;29;20222;-58
2022/09/26 04:08:42;;;;;;;4.17;2.60;;;;;;;7.80;100.00;98085.84;4919169;29;20240;-59
2022/09/26 04:11:13;;;;;;;5.00;2.77;;;;;;;7.85;100.00;98088.00;4923349;29;20281;-58
2022/09/26 04:13:42;;;;;;;4.17;3.03;;;;;;;7.81;100.00;98084.06;4921242;29;20238;-58
2022/09/26 04:16:10;;;;;;;5.00;2.47;;;;;;;7.71;100.00;98076.31;4926391;28;20227;-59
2022/09/26 04:18:37;;;;;;;4.27;2.70;;;;;;;7.58;100.00;98071.47;4944799;28;20780;-58
2022/09/26 04:21:06;;;;;;;8.13;3.17;;;;;;;7.49;100.00;98065.34;4934645;28;20222;-57
2022/09/26 04:23:36;;;;;;;4.57;2.60;;;;;;;7.40;100.00;98068.84;4940623;28;20737;-58
2022/09/26 04:26:04;;;;;;;5.33;2.70;;;;;;;7.35;100.00;98066.66;4939706;28;20218;-58
2022/09/26 04:28:31;;;;;;;3.67;2.63;;;;;;;7.21;100.00;98067.97;4924313;29;20254;-58
2022/09/26 04:31:00;;;;;;;6.50;2.13;;;;;;;7.18;100.00;98068.25;4938791;28;20316;-59
2022/09/26 04:33:27;;;;;;;4.97;2.20;;;;;;;7.12;100.00;98053.25;4917888;29;20238;-58
2022/09/26 04:36:08;;;;;;;8.90;2.57;;;;;;;6.98;100.00;98056.31;4941230;28;20222;-58
2022/09/26 04:38:35;;;;;;;9.97;3.10;;;;;;;6.94;100.00;98047.97;4937366;28;20250;-58
2022/09/26 04:41:06;;;;;;;6.80;2.27;;;;;;;6.89;100.00;98052.78;4921205;29;20611;-58
2022/09/26 04:43:34;;;;;;;11.53;2.73;;;;;;;6.89;100.00;98045.00;4921974;29;20606;-59
2022/09/26 04:46:06;;;;;;;3.20;2.30;;;;;;;6.84;100.00;98039.44;4946456;28;20750;-58
2022/09/26 04:48:34;;;;;;;14.10;3.30;;;;;;;6.78;100.00;98039.03;4923401;29;20239;-59
2022/09/26 04:51:14;;;;;;;3.57;2.67;;;;;;;6.81;100.00;98037.91;4917679;28;20228;-58
2022/09/26 04:53:41;;;;;;;10.40;2.90;;;;;;;6.70;100.00;98036.31;4920237;28;20254;-58
2022/09/26 04:56:18;;;;;;;8.80;2.90;;;;;;;6.64;100.00;98026.50;4933778;28;20230;-58
2022/09/26 04:58:45;;;;;;;4.57;2.73;;;;;;;6.63;100.00;98024.88;4920874;29;20234;-58
2022/09/26 05:01:15;;;;;;;9.63;2.90;;;;;;;6.56;100.00;98028.97;4916964;29;20218;-59
2022/09/26 05:04:04;;;;;;;8.20;2.70;;;;;;;6.63;100.00;98023.09;4938102;28;20242;-58
2022/09/26 05:06:33;;;;;;;8.80;2.73;;;;;;;6.52;100.00;98020.66;4919917;28;20234;-59
2022/09/26 05:09:03;;;;;;;5.40;2.83;;;;;;;6.44;100.00;98016.19;4942516;28;20227;-58
2022/09/26 05:12:05;;;;;;;6.70;2.57;;;;;;;6.34;100.00;98017.97;4931417;28;20710;-59
2022/09/26 05:14:34;;;;;;;7.93;2.80;;;;;;;6.33;100.00;98018.91;4939223;28;20246;-60
2022/09/26 05:17:03;;;;;;;4.67;3.17;;;;;;;6.30;100.00;98019.19;4945537;28;20230;-59
2022/09/26 05:19:30;;;;;;;5.43;2.80;;;;;;;6.28;100.00;98019.34;4923390;28;20242;-58
2022/09/26 05:22:19;;;;;;;6.27;3.10;;;;;;;6.27;100.00;98022.06;4934766;28;20234;-58
2022/09/26 05:27:30;;;;;;;6.23;3.50;;;;;;;6.33;100.00;98014.56;4940327;28;20261;-59
2022/09/26 05:29:57;;;;;;;12.53;3.50;;;;;;;6.34;100.00;98023.16;4936235;29;20238;-57
2022/09/26 05:32:27;;;;;;;7.10;3.30;;;;;;;6.32;100.00;98025.06;4926298;28;20710;-59
2022/09/26 05:34:54;;;;;;;6.40;3.20;;;;;;;6.41;100.00;98021.63;4940928;28;20614;-59
2022/09/26 05:37:21;;;;;;;3.87;3.27;;;;;;;6.38;100.00;98027.09;4937219;28;20233;-59
2022/09/26 05:42:38;;;;;;;7.70;3.50;;;;;;;6.49;100.00;98016.59;4934223;29;20707;-59
2022/09/26 05:45:05;;;;;;;7.03;3.20;;;;;;;6.54;100.00;98017.94;4920614;29;20297;-59
2022/09/26 05:47:35;;;;;;;6.00;3.57;;;;;;;6.58;100.00;98014.91;4924625;28;20227;-59
2022/09/26 05:50:08;;;;;;;6.50;3.80;;;;;;;6.62;100.00;98021.44;4932939;28;20665;-59
2022/09/26 05:52:35;;;;;;;6.73;4.03;;;;;;;6.69;100.00;98019.13;4923098;28;20240;-58
2022/09/26 05:55:02;;;;;;;9.30;4.57;;;;;;;6.75;100.00;98017.72;4937474;28;20313;-58
2022/09/26 05:57:52;;;;;;;10.33;5.60;;;;;;;6.81;100.00;98019.75;4924235;29;20805;-58
2022/09/26 06:00:21;;;;;;;11.63;7.43;;;;;;;6.83;100.00;98012.66;4917977;28;20230;-58
2022/09/26 06:02:55;;;;;;;15.27;7.20;;;;;;;6.87;100.00;98016.59;4936809;28;20245;-59
2022/09/26 06:05:29;;;;;;;9.70;6.73;;;;;;;6.91;100.00;98012.75;4943343;28;20261;-59
2022/09/26 06:08:12;;;;;;;10.63;6.33;;;;;;;6.97;100.00;98005.38;4934870;28;20223;-58
2022/09/26 06:10:43;;;;;;;10.40;5.40;;;;;;;6.98;100.00;98009.59;4924180;28;20234;-58
2022/09/26 06:13:14;;;;;;;8.07;4.60;;;;;;;7.09;100.00;98007.63;4934637;28;20683;-58
2022/09/26 06:15:44;;;;;;;7.57;4.07;;;;;;;7.19;100.00;98002.41;4936517;28;20238;-58
2022/09/26 06:18:12;;;;;;;6.23;3.87;;;;;;;7.45;100.00;98000.88;4936322;28;20317;-59
2022/09/26 06:20:39;;;;;;;7.90;3.60;;;;;;;7.57;100.00;97996.28;4922469;29;20261;-58
2022/09/26 06:23:05;;;;;;;5.03;3.43;;;;;;;7.69;100.00;97987.31;4921122;28;20241;-58
2022/09/26 06:25:34;;;;;;;8.17;4.03;;;;;;;7.80;100.00;97986.31;4918987;29;20223;-59
2022/09/26 06:28:02;;;;;;;10.63;3.90;;;;;;;7.89;100.00;97981.97;4926827;29;20223;-58
2022/09/26 06:30:30;;;;;;;11.00;4.30;;;;;;;8.04;100.00;97983.09;4925283;29;20697;-59
2022/09/26 06:33:08;;;;;;;10.23;6.80;;;;;;;8.20;100.00;97990.19;4935715;28;20720;-60
2022/09/26 06:36:04;;;;;;;11.63;4.43;;;;;;;8.41;100.00;97989.03;4930591;28;20253;-58
2022/09/26 06:38:36;;;;;;;7.57;4.20;;;;;;;8.56;100.00;97986.69;4919432;29;20234;-58
2022/09/26 06:41:06;;;;;;;7.93;3.93;;;;;;;8.61;100.00;97986.25;4925220;29;20307;-58
2022/09/26 06:43:33;;;;;;;6.47;3.80;;;;;;;8.63;100.00;97974.72;4935561;28;20325;-59
2022/09/26 06:46:02;;;;;;;6.93;4.27;;;;;;;8.63;100.00;97966.09;4942698;28;20233;-58
2022/09/26 06:48:37;;;;;;;8.70;4.17;;;;;;;8.63;100.00;97961.69;4941969;28;20340;-57
2022/09/26 06:51:25;;;;;;;7.80;4.37;;;;;;;8.65;100.00;97964.16;4930949;28;20253;-58
2022/09/26 06:53:53;;;;;;;7.50;3.93;;;;;;;8.69;100.00;97966.28;4927822;29;20228;-58
2022/09/26 06:56:24;;;;;;;7.80;4.10;;;;;;;8.76;100.00;97970.88;4928538;28;20234;-58
2022/09/26 06:58:51;;;;;;;7.63;3.40;;;;;;;8.78;100.00;97971.53;4930507;28;20289;-59
2022/09/26 07:01:21;;;;;;;7.77;4.00;;;;;;;8.78;100.00;97959.34;4939372;28;20223;-58
2022/09/26 07:04:07;;;;;;;11.23;7.50;;;;;;;8.80;100.00;97965.22;4922903;29;20773;-58
2022/09/26 07:06:44;;;;;;;10.47;5.50;;;;;;;8.88;100.00;97967.03;4940285;28;20580;-58
2022/09/26 07:09:11;;;;;;;6.00;4.50;;;;;;;8.93;100.00;97964.78;4936566;28;20232;-58
2022/09/26 07:11:55;;;;;;;7.97;5.93;;;;;;;8.99;100.00;97969.34;4923362;29;20246;-58
2022/09/26 07:14:22;;;;;;;11.00;6.83;;;;;;;9.16;100.00;97967.59;4935507;28;20238;-59
2022/09/26 07:16:56;;;;;;;7.53;5.23;;;;;;;9.32;100.00;97962.63;4934311;28;20242;-59
2022/09/26 07:19:51;;;;;;;5.57;4.53;;;;;;;9.56;100.00;97973.06;4917766;28;20324;-58
2022/09/26 07:22:38;;;;;;;7.40;5.00;;;;;;;9.79;100.00;97969.84;4938323;29;20246;-58
2022/09/26 07:25:06;;;;;;;6.40;4.10;;;;;;;10.08;100.00;97980.75;4925732;29;20239;-58
2022/09/26 07:27:33;;;;;;;5.30;4.50;;;;;;;10.25;100.00;97968.53;4943678;28;20231;-58
2022/09/26 07:30:00;;;;;;;8.27;4.30;;;;;;;10.36;100.00;97985.63;4922583;29;20226;-59
2022/09/26 07:32:29;;;;;;;8.90;4.87;;;;;;;10.48;100.00;97966.09;4919794;29;20222;-58
2022/09/26 07:35:18;;;;;;;7.73;4.83;;;;;;;10.72;100.00;97964.41;4935662;29;20741;-58
2022/09/26 07:37:51;;;;;;;7.77;4.40;;;;;;;10.88;99.50;97963.50;4943975;28;20238;-58
2022/09/26 07:40:19;;;;;;;5.97;4.17;;;;;;;11.09;97.19;97965.56;4921474;28;20626;-59
2022/09/26 07:42:47;;;;;;;8.00;4.13;;;;;;;11.30;95.66;97954.50;4925718;29;20318;-58
2022/09/26 07:45:14;;;;;;;5.40;3.73;;;;;;;11.43;94.24;97953.94;4939788;28;20257;-58
2022/09/26 07:50:45;;;;;;;5.33;3.60;;;;;;;11.29;94.32;97947.66;4938179;28;20642;-59
2022/09/26 07:53:25;;;;;;;5.73;3.47;;;;;;;11.21;95.81;97958.16;4924600;29;20236;-58
2022/09/26 07:56:12;;;;;;;4.73;3.53;;;;;;;11.27;94.69;97948.81;4935929;28;20224;-58
2022/09/26 07:58:56;;;;;;;7.43;3.50;;;;;;;11.30;94.58;97945.84;4921575;29;20222;-59
2022/09/26 08:01:37;;;;;;;11.43;6.00;;;;;;;11.32;95.77;97936.88;4922529;28;20302;-58
2022/09/26 08:04:22;;;;;;;6.10;4.03;;;;;;;11.41;94.50;97939.44;4938469;28;20290;-59
2022/09/26 08:06:50;;;;;;;5.13;3.30;;;;;;;11.48;92.97;97933.31;4929600;29;20236;-57
2022/09/26 08:09:18;;;;;;;7.00;3.30;;;;;;;11.54;92.29;97941.47;4938020;28;20223;-58
2022/09/26 08:12:10;;;;;;;6.13;3.10;;;;;;;11.81;89.02;97937.50;4938552;28;20238;-58
2022/09/26 08:15:10;;;;;;;6.97;2.87;;;;;;;12.04;90.14;97939.31;4931939;28;20691;-59
2022/09/26 08:17:43;;;;;;;5.93;3.23;;;;;;;12.46;82.37;97943.16;4923080;29;20247;-59
2022/09/26 08:20:11;;;;;;;4.73;2.90;;;;;;;12.52;83.66;97939.81;4923767;29;20234;-59
2022/09/26 08:22:38;;;;;;;5.57;2.80;;;;;;;12.85;83.38;97938.63;4924900;29;20653;-59
2022/09/26 08:25:08;;;;;;;7.03;3.67;;;;;;;12.70;82.98;97934.22;4926539;29;20233;-59
2022/09/26 08:27:58;;;;;;;4.90;2.60;;;;;;;12.57;82.08;97933.22;4939839;28;20298;-59
2022/09/26 08:30:30;;;;;;;5.03;2.90;;;;;;;12.38;83.64;97935.38;4936364;28;20229;-59
2022/09/26 08:33:00;;;;;;;8.97;3.67;;;;;;;12.24;85.49;97939.59;4924248;28;20338;-59
2022/09/26 08:35:32;;;;;;;3.90;3.13;;;;;;;12.29;87.13;97941.69;4924745;28;20561;-59
2022/09/26 08:38:16;;;;;;;5.37;3.33;;;;;;;12.40;83.17;97939.44;4941053;28;20696;-59
2022/09/26 08:40:54;;;;;;;5.93;3.00;;;;;;;12.32;83.78;97925.63;4939501;28;20715;-59
2022/09/26 08:43:51;;;;;;;7.40;3.47;;;;;;;12.27;83.05;97922.75;4935900;28;20243;-58
2022/09/26 08:46:57;;;;;;;5.03;3.33;;;;;;;12.24;84.44;97922.09;4937422;29;20692;-58
2022/09/26 08:49:50;;;;;;;8.17;3.77;;;;;;;12.34;84.17;97919.22;4943289;28;20247;-59
2022/09/26 08:52:26;;;;;;;7.53;4.17;;;;;;;12.47;84.76;97918.59;4918513;28;20231;-59
2022/09/26 08:54:56;;;;;;;7.10;3.00;;;;;;;12.92;81.12;97907.25;4927878;29;20249;-59
2022/09/26 08:57:34;;;;;;;7.13;3.40;;;;;;;13.14;82.59;97901.06;4923130;28;20242;-59
2022/09/26 09:00:09;;;;;;;5.07;3.10;;;;;;;13.46;78.12;97910.50;4925916;29;20328;-58
2022/09/26 09:02:44;;;;;;;6.47;3.47;;;;;;;13.55;77.98;97912.78;4922410;29;20380;-58
2022/09/26 09:05:19;;;;;;;4.53;2.73;;;;;;;13.67;78.78;97917.53;4923137;28;20228;-59
2022/09/26 09:07:50;;;;;;;4.97;3.20;;;;;;;13.42;79.73;97910.88;4926710;29;20287;-60
2022/09/26 09:10:19;;;;;;;4.90;2.60;;;;;;;13.34;77.47;97926.69;4922162;29;20229;-60
2022/09/26 09:13:07;;;;;;;6.50;2.93;;;;;;;12.98;77.17;97919.63;4921711;29;20240;-59
2022/09/26 09:16:03;;;;;;;4.70;2.73;;;;;;;12.89;79.69;97923.34;4937255;28;20271;-59
2022/09/26 09:19:03;;;;;;;6.87;3.13;;;;;;;13.22;78.64;97910.66;4928170;28;20231;-59
2022/09/26 09:22:07;;;;;;;5.57;2.27;;;;;;;14.05;69.54;97912.00;4935481;28;20244;-59
2022/09/26 09:24:59;;;;;;;4.37;2.37;;;;;;;14.21;72.59;97907.47;4937415;28;20263;-59
2022/09/26 09:27:42;;;;;;;4.40;2.77;;;;;;;13.99;75.75;97913.56;4920716;28;20230;-60
2022/09/26 09:30:18;;;;;;;3.27;2.33;;;;;;;13.99;73.38;97918.00;4927347;29;20240;-60
2022/09/26 09:33:11;;;;;;;6.00;2.30;;;;;;;13.93;72.30;97898.56;4936712;28;20695;-60
2022/09/26 09:35:47;;;;;;;3.80;2.40;;;;;;;14.30;72.81;97901.88;4922931;28;20698;-61
2022/09/26 09:38:34;;;;;;;5.70;2.33;;;;;;;14.26;72.66;97887.50;4939668;28;20350;-60
2022/09/26 09:41:09;;;;;;;3.73;2.03;;;;;;;14.65;68.42;97895.00;4937710;28;20586;-60
2022/09/26 09:43:39;;;;;;;4.50;2.40;;;;;;;14.54;71.15;97897.16;4918791;28;20229;-60
2022/09/26 09:46:16;;;;;;;3.73;2.10;;;;;;;14.86;70.23;97889.63;4938408;28;20271;-60
2022/09/26 09:48:46;;;;;;;6.80;2.23;;;;;;;14.58;71.62;97882.63;4936424;28;20258;-59
2022/09/26 09:51:21;;;;;;;6.30;2.80;;;;;;;14.62;71.30;97885.66;4939718;28;20234;-60
2022/09/26 09:54:12;;;;;;;3.43;2.00;;;;;;;14.69;73.32;97865.53;4929490;28;20277;-61
2022/09/26 09:56:47;;;;;;;4.20;2.10;;;;;;;14.67;68.83;97864.88;4936857;28;20313;-60
2022/09/26 09:59:30;;;;;;;4.60;2.10;;;;;;;14.53;69.86;97865.81;4917243;29;20558;-60
2022/09/26 10:02:18;;;;;;;5.77;2.10;;;;;;;14.79;71.50;97869.59;4934547;28;20875;-60
2022/09/26 10:04:49;;;;;;;3.03;2.27;;;;;;;14.89;69.77;97865.59;4916980;29;20305;-59
2022/09/26 10:07:16;;;;;;;2.80;2.20;;;;;;;14.90;69.21;97863.78;4934535;28;20838;-58
2022/09/26 10:09:57;;;;;;;4.57;2.00;;;;;;;14.79;68.04;97846.78;4937576;28;20252;-61
2022/09/26 10:12:45;;;;;;;6.17;2.37;;;;;;;14.51;68.58;97847.66;4928889;28;20248;-59
2022/09/26 10:15:31;;;;;;;5.03;2.47;;;;;;;14.65;70.50;97860.84;4940290;28;20232;-60
2022/09/26 10:18:30;;;;;;;3.57;2.33;;;;;;;14.89;68.07;97856.91;4938077;28;20230;-60
2022/09/26 10:21:32;;;;;;;3.40;1.97;;;;;;;15.14;67.31;97848.47;4912954;28;20233;-61
2022/09/26 10:24:02;;;;;;;6.07;2.40;;;;;;;14.70;69.07;97854.00;4922764;29;20241;-60
2022/09/26 10:26:48;;;;;;;4.70;2.13;;;;;;;14.61;69.55;97844.66;4931865;28;20325;-59
2022/09/26 10:29:33;;;;;;;4.57;2.30;;;;;;;14.56;69.89;97844.41;4877277;29;20231;-59
2022/09/26 10:32:04;;;;;;;6.53;2.40;;;;;;;14.21;69.10;97842.66;4934182;29;20229;-59
2022/09/26 10:34:37;;;;;;;7.53;2.93;;;;;;;13.93;70.62;97837.44;4919383;28;20234;-59
2022/09/26 10:37:22;;;;;;;4.73;2.40;;;;;;;14.05;71.45;97841.16;4906385;29;20238;-60
2022/09/26 10:42:40;;;;;;;5.93;2.67;;;;;;;14.63;68.72;97831.34;4936123;28;20684;-60
2022/09/26 10:45:16;;;;;;;3.53;2.20;;;;;;;14.87;66.39;97835.28;4925583;28;20576;-60
2022/09/26 10:48:05;;;;;;;5.90;2.03;;;;;;;15.00;66.04;97816.91;4935815;28;20288;-60
2022/09/26 10:51:07;;;;;;;2.77;1.90;;;;;;;15.20;66.41;97819.56;4922696;28;20293;-60
2022/09/26 10:53:38;;;;;;;7.07;2.10;;;;;;;14.80;62.91;97814.25;4936954;28;20300;-60
2022/09/26 10:56:11;;;;;;;6.87;2.03;;;;;;;14.75;64.90;97814.03;4934879;28;20229;-60
2022/09/26 10:58:41;;;;;;;2.77;1.50;;;;;;;14.66;65.95;97809.94;4906451;29;20296;-60
2022/09/26 11:01:20;;;;;;;8.47;1.70;;;;;;;14.99;65.88;97804.78;4871279;29;20225;-59
2022/09/26 11:03:49;;;;;;;4.17;1.40;;;;;;;15.38;64.04;97802.38;4901739;28;20264;-60
2022/09/26 11:06:29;;;;;;;3.87;1.40;;;;;;;15.62;62.30;97797.53;4916413;28;20240;-59
2022/09/26 11:09:04;;;;;;;3.47;1.67;;;;;;;15.79;61.76;97797.91;4931142;28;21063;-60
2022/09/26 11:11:37;;;;;;;4.37;1.73;;;;;;;16.21;63.23;97808.16;4933631;28;20811;-60
2022/09/26 11:14:07;;;;;;;5.07;1.60;;;;;;;16.10;60.86;97793.81;4940077;28;20233;-60
2022/09/26 11:16:51;;;;;;;4.33;1.73;;;;;;;16.25;60.79;97785.66;4924164;29;20242;-60
2022/09/26 11:19:27;;;;;;;3.57;1.60;;;;;;;16.62;58.95;97785.91;4936338;28;20283;-60
2022/09/26 11:22:04;;;;;;;3.90;2.20;;;;;;;16.64;58.25;97783.88;4943112;28;20238;-60
2022/09/26 11:24:37;;;;;;;3.23;1.70;;;;;;;16.77;59.20;97776.94;4934777;28;20249;-60
2022/09/26 11:27:18;;;;;;;3.33;1.40;;;;;;;16.20;58.00;97780.22;4923495;29;20289;-60
2022/09/26 11:29:54;;;;;;;2.03;1.60;;;;;;;15.47;60.06;97793.28;4937431;28;20701;-61
2022/09/26 11:32:28;;;;;;;2.63;1.27;;;;;;;15.02;61.75;97780.72;4935509;28;21608;-60
2022/09/26 11:35:16;;;;;;;2.80;1.70;;;;;;;14.83;62.41;97790.22;4938889;28;20380;-60
2022/09/26 11:38:04;;;;;;;3.33;1.83;;;;;;;14.68;65.22;97784.28;4946697;28;20229;-60
2022/09/26 11:40:56;;;;;;;4.47;1.80;;;;;;;15.23;65.00;97757.91;4931754;28;24235;-60
2022/09/26 11:43:35;;;;;;;5.67;2.00;;;;;;;15.40;61.63;97768.81;4939968;28;20232;-60
2022/09/26 11:46:35;;;;;;;2.73;1.60;;;;;;;15.42;61.38;97773.84;4943988;28;20239;-60
2022/09/26 11:49:35;;;;;;;4.10;1.60;;;;;;;15.53;62.44;97775.88;4934985;28;20256;-61
2022/09/26 11:52:34;;;;;;;4.37;1.70;;;;;;;15.98;60.79;97767.31;4931696;28;20237;-61
2022/09/26 11:55:15;;;;;;;2.73;1.97;;;;;;;16.18;59.94;97755.91;4940439;28;20239;-61
2022/09/26 11:57:49;;;;;;;2.80;1.50;;;;;;;16.22;57.42;97755.31;4934453;28;20245;-60
2022/09/26 12:00:25;;;;;;;2.73;1.30;;;;;;;15.96;59.80;97752.75;4936894;28;20706;-61
2022/09/26 12:03:06;;;;;;;1.90;1.33;;;;;;;15.90;58.17;97739.41;4941047;28;20322;-60
2022/09/26 12:05:44;;;;;;;9.10;1.50;;;;;;;16.38;57.25;97751.38;4937481;28;20301;-61
2022/09/26 12:08:24;;;;;;;2.57;1.20;;;;;;;16.07;58.38;97750.28;4936332;28;20239;-61
2022/09/26 12:11:01;;;;;;;2.10;1.53;;;;;;;15.65;58.94;97742.66;4937757;28;20246;-60
2022/09/26 12:13:40;;;;;;;4.80;1.53;;;;;;;16.26;57.42;97726.72;4936122;28;20241;-60
2022/09/26 12:16:14;;;;;;;2.00;1.20;;;;;;;16.25;58.72;97735.63;4936897;28;20237;-60
2022/09/26 12:18:53;;;;;;;3.50;1.90;;;;;;;15.75;59.72;97718.59;4936451;28;20235;-60
2022/09/26 12:21:31;;;;;;;5.80;1.50;;;;;;;15.89;59.76;97708.06;4935849;29;20238;-61
2022/09/26 12:24:06;;;;;;;3.07;1.97;;;;;;;16.05;63.00;97701.50;4937609;28;20699;-61